• Join FlightAware (Why Join?)
  • Login
  • US Flag 
02:32AM EDT


 

Airport Tracker/Info


-or-


 

Live Flight TrackerFlight Track Log ✈ AAY862 ✈ 09-May-2013 ✈ KPIE - KCID

Flight Track Log - Related Links

Times and Time Zones

All times are in EDT time to prevent confusion due to time zone crossing. See the AAY862 flight status page for this flight to view local times or setup timezone preferences in your user account.

Time Position Orientation Groundspeed Altitude Reporting Facility
EDT Latitude Longitude Course Direction KTS MPH feet Rate Location/Type
04:08PM 27.9000 -82.6833 180° South 208 239 500  Level Tampa TRACON
04:09PM 27.8500 -82.6833 180° South 194 223 1,900 1,800 Climbing Tampa TRACON
04:09PM 27.8167 -82.7167 221° Southwest 228 262 3,600 2,100 Climbing Tampa TRACON
04:12PM 27.9372 -82.8197 323° Northwest 268 308 8,200 2,160 Climbing Jacksonville Center
04:13PM 28.0122 -82.8503 340° North 273 314 10,300 1,680 Climbing Jacksonville Center
04:14PM 28.1103 -82.8408 North 294 338 11,700 1,320 Climbing Jacksonville Center
04:15PM 28.2189 -82.8289 North 347 399 13,000 1,860 Climbing Jacksonville Center
04:16PM 28.3272 -82.8125 North 377 434 15,500 2,280 Climbing Jacksonville Center
04:17PM 28.4358 -82.8264 354° North 382 440 17,600 1,800 Climbing Jacksonville Center
04:18PM 28.5403 -82.8808 335° Northwest 387 445 19,100 1,620 Climbing Jacksonville Center
04:19PM 28.6467 -82.9328 337° Northwest 402 463 20,900 1,680 Climbing Jacksonville Center
04:20PM 28.7614 -82.9919 336° Northwest 415 478 22,500 1,440 Climbing Jacksonville Center
04:21PM 28.8739 -83.0467 337° Northwest 421 484 23,800 1,500 Climbing Jacksonville Center
04:22PM 28.9886 -83.1014 337° Northwest 435 501 25,500 1,500 Climbing Jacksonville Center
04:23PM 29.1033 -83.1589 336° Northwest 440 506 26,900 1,500 Climbing Jacksonville Center
04:24PM 29.2119 -83.2161 335° Northwest 434 499 28,500 1,560 Climbing Jacksonville Center
04:25PM 29.3203 -83.2831 332° Northwest 429 494 30,000 780 Climbing Jacksonville Center
04:26PM 29.4244 -83.3481 331° Northwest 429 494 30,100 600 Climbing Jacksonville Center
04:27PM 29.5158 -83.4319 321° Northwest 424 488 31,200 900 Climbing Jacksonville Center
04:28PM 29.6136 -83.5017 328° Northwest 424 488 32,000 360 Climbing Jacksonville Center
04:29PM 29.7242 -83.5503 339° North 418 481 32,000  Level Jacksonville Center
04:30PM 29.8367 -83.6036 338° Northwest 424 488 32,000  Level Jacksonville Center
04:31PM 29.9447 -83.6525 339° North 424 488 32,000  Level Jacksonville Center
04:32PM 30.0553 -83.7036 338° Northwest 424 488 32,000  Level Jacksonville Center
04:33PM 30.1656 -83.7550 338° Northwest 424 488 32,000  Level Jacksonville Center
04:34PM 30.2758 -83.8067 338° Northwest 424 488 32,000  Level Jacksonville Center
04:35PM 30.3839 -83.8606 337° Northwest 424 488 32,000  Level Jacksonville Center
04:36PM 30.4942 -83.9100 339° North 424 488 32,000  Level Jacksonville Center
04:37PM 30.6022 -83.9642 337° Northwest 424 488 32,000  Level Jacksonville Center
04:38PM 30.7147 -84.0139 339° North 424 488 32,000  Level Jacksonville Center
04:39PM 30.8247 -84.0683 337° Northwest 424 488 32,000  Level Jacksonville Center
04:40PM 30.9369 -84.1206 338° Northwest 424 488 32,000  Level Jacksonville Center
04:41PM 31.0492 -84.1753 337° Northwest 424 488 32,000  Level Jacksonville Center
04:42PM 31.1614 -84.2278 338° Northwest 424 488 32,000  Level Jacksonville Center
04:43PM 31.2717 -84.2806 338° Northwest 429 494 32,000  Level Jacksonville Center
04:44PM 31.3817 -84.3333 338° Northwest 429 494 32,000  Level Jacksonville Center
04:45PM 31.5414 -84.4117 337° Northwest 435 501 32,000  Level Atlanta Center
04:46PM 31.6519 -84.4658 337° Northwest 435 501 32,000  Level Atlanta Center
04:47PM 31.7644 -84.5200 338° Northwest 435 501 32,000  Level Atlanta Center
04:48PM 31.8769 -84.5769 337° Northwest 435 501 32,000  Level Atlanta Center
04:49PM 31.9978 -84.6364 337° Northwest 435 501 32,000  Level Atlanta Center
04:50PM 32.1122 -84.6886 339° North 435 501 32,000  Level Atlanta Center
04:51PM 32.2247 -84.7458 337° Northwest 430 495 32,000  Level Atlanta Center
04:52PM 32.3369 -84.7983 338° Northwest 430 495 32,000  Level Atlanta Center
04:53PM 32.4494 -84.8536 337° Northwest 436 502 32,000  Level Atlanta Center
04:54PM 32.5617 -84.9064 338° Northwest 436 502 32,000  Level Atlanta Center
04:55PM 32.6742 -84.9642 337° Northwest 430 495 32,000  Level Atlanta Center
04:56PM 32.7883 -85.0172 339° North 430 495 32,000  Level Atlanta Center
04:57PM 32.9028 -85.0828 334° Northwest 437 503 32,000  Level Atlanta Center
04:58PM 33.0150 -85.1386 337° Northwest 437 503 32,000  Level Atlanta Center
04:59PM 33.1272 -85.1972 336° Northwest 437 503 32,000  Level Atlanta Center
05:00PM 33.2414 -85.2533 338° Northwest 437 503 32,000  Level Atlanta Center
05:01PM 33.3431 -85.3044 337° Northwest 437 503 32,000  Level Atlanta Center
05:02PM 33.4575 -85.3611 338° Northwest 436 502 32,000  Level Atlanta Center
05:03PM 33.5717 -85.4175 338° Northwest 442 509 32,000  Level Atlanta Center
05:04PM 33.6836 -85.4742 337° Northwest 436 502 32,000  Level Atlanta Center
05:05PM 33.8103 -85.5389 337° Northwest 441 507 32,000  Level Atlanta Center
05:06PM 33.9264 -85.5986 337° Northwest 441 507 32,000  Level Atlanta Center
05:07PM 34.0403 -85.6558 337° Northwest 441 507 32,000  Level Atlanta Center
05:08PM 34.1522 -85.7156 336° Northwest 442 509 32,000  Level Atlanta Center
05:09PM 34.2683 -85.7731 338° Northwest 442 509 32,000  Level Atlanta Center
05:10PM 34.3783 -85.8258 338° Northwest 437 503 32,000  Level Atlanta Center
05:11PM 34.4942 -85.8861 337° Northwest 432 497 32,000  Level Atlanta Center
05:12PM 34.6061 -85.9442 337° Northwest 432 497 32,000  Level Atlanta Center
05:13PM 34.7197 -86.0050 336° Northwest 437 503 32,000  Level Atlanta Center
05:14PM 34.8336 -86.0633 337° Northwest 437 503 32,000  Level Atlanta Center
05:15PM 34.9433 -86.1267 335° Northwest 432 497 32,000  Level Atlanta Center
05:16PM 35.0072 -86.1589 338° Northwest 430 495 32,000  Level Memphis Center
05:17PM 35.1050 -86.2122 336° Northwest 430 495 32,000  Level Memphis Center
05:18PM 35.2175 -86.2728 336° Northwest 430 495 32,000  Level Memphis Center
05:19PM 35.3383 -86.3356 337° Northwest 430 495 32,000  Level Memphis Center
05:20PM 35.4553 -86.3986 336° Northwest 436 502 32,000  Level Memphis Center
05:21PM 35.5678 -86.4622 335° Northwest 436 502 32,000  Level Memphis Center
05:22PM 35.6800 -86.5183 338° Northwest 446 513 32,000  Level Memphis Center
05:23PM 35.7967 -86.5794 337° Northwest 446 513 32,000  Level Memphis Center
05:24PM 35.9089 -86.6433 335° Northwest 441 507 32,000  Level Memphis Center
05:25PM 36.0214 -86.7025 337° Northwest 441 507 32,000  Level Memphis Center
05:26PM 36.1336 -86.7642 336° Northwest 441 507 32,000  Level Memphis Center
05:27PM 36.2353 -86.8192 336° Northwest 441 507 32,000  Level Memphis Center
05:28PM 36.3453 -86.8786 336° Northwest 446 513 32,000  Level Memphis Center
05:29PM 36.4786 -86.9503 337° Northwest 463 533 32,000  Level Memphis Center
05:30PM 36.5867 -87.0103 336° Northwest 447 514 32,000  Level Memphis Center
05:31PM 36.6986 -87.0703 337° Northwest 442 509 32,000  Level Memphis Center
05:32PM 36.8086 -87.1333 335° Northwest 435 501 32,000  Level Memphis Center
05:33PM 36.9206 -87.1936 337° Northwest 435 501 32,000  Level Memphis Center
05:34PM 37.0872 -87.2858 336° Northwest 440 506 32,000  Level Kansas City Center
05:35PM 37.1806 -87.3367 337° Northwest 434 499 32,000  Level Indianapolis Center
05:36PM 37.2786 -87.4253 324° Northwest 432 497 32,000  Level Indianapolis Center
05:37PM 37.3669 -87.5303 317° Northwest 432 497 32,000  Level Indianapolis Center
05:38PM 37.4575 -87.6342 318° Northwest 437 503 32,000  Level Indianapolis Center
05:39PM 37.5481 -87.7419 317° Northwest 441 507 32,000  Level Indianapolis Center
05:40PM 37.6589 -87.8583 320° Northwest 446 513 32,000  Level Indianapolis Center
05:41PM 37.7564 -87.9564 322° Northwest 445 512 32,000  Level Indianapolis Center
05:42PM 37.8422 -88.0681 314° West 443 510 32,000  Level Indianapolis Center
05:43PM 37.9314 -88.1758 316° Northwest 441 507 32,000  Level Indianapolis Center
05:44PM 38.0219 -88.2831 317° Northwest 442 509 32,000  Level Indianapolis Center
05:45PM 38.1047 -88.3964 313° West 435 501 32,000  Level Indianapolis Center
05:46PM 38.1739 -88.5258 304° West 441 507 32,000  Level Indianapolis Center
05:47PM 38.2450 -88.6531 305° West 440 506 32,000  Level Indianapolis Center
05:48PM 38.3319 -88.8064 306° West 440 506 32,000  Level Indianapolis Center
05:50PM 38.4242 -88.9169 317° Northwest 453 521 32,000  Level Indianapolis Center
05:51PM 38.5225 -89.0158 322° Northwest 448 516 32,000  Level Indianapolis Center
05:52PM 38.6200 -89.1186 321° Northwest 452 520 32,000  Level Indianapolis Center
05:53PM 38.7422 -89.2519 320° Northwest 454 522 32,000  Level Kansas City Center
05:54PM 38.8464 -89.3625 320° Northwest 455 524 32,000  Level Kansas City Center
05:55PM 38.9436 -89.4664 320° Northwest 456 525 32,000  Level Kansas City Center
05:56PM 39.0575 -89.5689 325° Northwest 467 537 32,000  Level Kansas City Center
05:57PM 39.1675 -89.6567 328° Northwest 467 537 32,000  Level Kansas City Center
05:58PM 39.2667 -89.7367 328° Northwest 467 537 32,000  Level Kansas City Center
05:59PM 39.3769 -89.8233 329° Northwest 466 536 32,000  Level Kansas City Center
06:00PM 39.5078 -89.9292 328° Northwest 465 535 32,000  Level Kansas City Center
06:01PM 39.6150 -90.0167 328° Northwest 461 531 32,000  Level Kansas City Center
06:02PM 39.7214 -90.1039 328° Northwest 456 525 32,000  Level Kansas City Center
06:03PM 39.8286 -90.1906 328° Northwest 456 525 32,000  Level Kansas City Center
06:04PM 39.9358 -90.2789 328° Northwest 455 524 32,000 -120 Level Kansas City Center
06:05PM 40.0008 -90.3331 327° Northwest 458 527 31,900  Descending Chicago Center
06:06PM 40.1103 -90.4222 328° Northwest 461 531 32,000  Climbing Chicago Center
06:07PM 40.2181 -90.5119 328° Northwest 457 526 32,000  Level Chicago Center
06:08PM 40.3269 -90.6028 328° Northwest 460 529 32,000  Level Chicago Center
06:09PM 40.4350 -90.6911 328° Northwest 457 526 32,000  Level Chicago Center
06:10PM 40.5431 -90.7836 327° Northwest 462 532 32,000  Level Chicago Center
06:11PM 40.6517 -90.8736 328° Northwest 459 528 32,000  Level Chicago Center
06:12PM 40.7594 -90.9647 327° Northwest 459 528 32,000 -960 Level Chicago Center
06:13PM 40.8833 -91.0864 323° Northwest 466 536 30,100 -1,800 Descending Chicago Center
06:14PM 40.9783 -91.1972 319° Northwest 458 527 28,400 -1,200 Descending Chicago Center
06:15PM 41.0667 -91.3100 316° Northwest 445 512 27,700 -1,620 Descending Chicago Center
06:16PM 41.1569 -91.4242 316° Northwest 446 513 25,100 -2,820 Descending Chicago Center
06:17PM 41.2589 -91.5425 319° Northwest 449 517 21,900 -2,760 Descending Chicago Center
06:18PM 41.3753 -91.5842 345° North 438 504 19,400 -2,760 Descending Chicago Center
06:19PM 41.4911 -91.5478 13° North 431 496 16,200 -3,360 Descending Chicago Center
06:20PM 41.6006 -91.5178 12° North 408 470 12,500 -2,520 Descending Chicago Center
06:21PM 41.7172 -91.4942 North 350 403 11,000 -1,980 Descending Chicago Center
06:22PM 41.7939 -91.4581 19° North 302 348 8,500 -2,400 Descending Chicago Center
06:23PM 41.8469 -91.3797 48° Northeast 301 346 6,100 -2,160 Descending Chicago Center
06:24PM 41.8900 -91.4431 312° West 286 329 4,100 -1,560 Descending Chicago Center
06:25PM 41.8822 -91.5481 264° West 255 293 2,900 -1,020 Descending Chicago Center
06:26PM 41.8831 -91.6189 271° West 225 259 2,000 -780 Descending Chicago Center
06:27PM 41.8836 -91.6836 271° West 200 230 1,400 -600 Descending Chicago Center